Time;durP1;ratioP1;P1;durP2;ratioP2;P2;SDS_P1;SDS_P2;PMS_P1;PMS_P2;Temp;Humidity;BMP_temperature;BMP_pressure;BME280_temperature;BME280_humidity;BME280_pressure;Samples;Min_cycle;Max_cycle;Signal;HPM_P1;HPM_P2
2023/05/11 00:01:20;;;;;;;45.23;28.43;;;12.50;99.90;;;;;;2609962;39;20554;-74
2023/05/11 00:07:08;;;;;;;40.17;27.97;;;12.50;99.90;;;;;;2608652;54;20440;-74
2023/05/11 00:16:58;;;;;;;48.47;28.30;;;12.60;99.90;;;;;;2610148;54;20394;-74
2023/05/11 00:22:45;;;;;;;41.07;26.70;;;12.40;99.90;;;;;;2608421;54;20410;-74
2023/05/11 00:28:33;;;;;;;45.60;27.67;;;12.40;99.90;;;;;;2608658;54;20130;-74
2023/05/11 00:34:21;;;;;;;44.40;26.10;;;12.40;99.90;;;;;;2610151;39;20566;-74
2023/05/11 00:40:09;;;;;;;43.90;27.00;;;12.30;99.90;;;;;;2610093;54;20134;-73
2023/05/11 00:45:57;;;;;;;47.23;28.87;;;12.40;99.90;;;;;;2610792;54;20434;-73
2023/05/11 00:51:45;;;;;;;51.70;28.87;;;12.40;99.90;;;;;;2610064;39;20299;-74
2023/05/11 00:57:34;;;;;;;51.33;30.77;;;12.40;99.90;;;;;;2612108;39;20197;-74
2023/05/11 01:03:22;;;;;;;43.40;28.70;;;12.40;99.90;;;;;;2611023;54;20371;-74
2023/05/11 01:19:14;;;;;;;46.80;29.27;;;12.50;99.90;;;;;;2612655;31;20872;-74
2023/05/11 01:31:30;;;;;;;47.70;29.27;;;12.40;99.90;;;;;;2613302;54;20471;-74
2023/05/11 01:37:21;;;;;;;44.70;27.00;;;12.40;99.90;;;;;;2609540;54;20506;-74
2023/05/11 01:43:15;;;;;;;47.60;30.03;;;12.50;99.90;;;;;;2611455;54;20363;-74
2023/05/11 01:49:08;;;;;;;51.17;28.77;;;12.50;99.90;;;;;;2609867;54;20375;-75
2023/05/11 01:54:58;;;;;;;54.57;29.63;;;12.60;99.90;;;;;;2607363;54;20399;-75
2023/05/11 02:00:46;;;;;;;54.03;30.90;;;12.50;99.90;;;;;;2608586;54;20410;-75
2023/05/11 02:06:36;;;;;;;52.47;31.97;;;12.50;99.90;;;;;;2608143;54;20455;-74
2023/05/11 02:12:25;;;;;;;57.43;29.27;;;12.50;99.90;;;;;;2607331;54;20424;-74
2023/05/11 02:21:36;;;;;;;49.07;30.27;;;12.30;99.90;;;;;;2610457;54;20442;-69
2023/05/11 02:27:24;;;;;;;50.13;30.43;;;12.40;99.90;;;;;;2610552;39;20769;-68
2023/05/11 02:33:20;;;;;;;56.80;30.60;;;12.40;99.90;;;;;;2612020;54;20166;-69
2023/05/11 02:39:11;;;;;;;52.20;32.20;;;12.60;99.90;;;;;;2611070;54;20387;-68
2023/05/11 02:45:02;;;;;;;60.07;34.77;;;12.60;99.90;;;;;;2606380;54;20379;-67
2023/05/11 02:50:52;;;;;;;60.87;33.33;;;12.60;99.90;;;;;;2608520;39;20689;-67
2023/05/11 02:56:40;;;;;;;56.73;34.13;;;12.60;99.90;;;;;;2608841;54;20391;-67
2023/05/11 03:02:27;;;;;;;57.90;34.27;;;12.60;99.90;;;;;;2607150;54;20166;-66
2023/05/11 03:08:15;;;;;;;53.57;32.30;;;12.50;99.90;;;;;;2607930;54;20715;-66
2023/05/11 03:14:04;;;;;;;56.87;32.23;;;12.60;99.90;;;;;;2607619;54;20122;-67
2023/05/11 03:17:01;;;;;;;51.27;30.47;;;12.70;99.90;;;;;;2607828;54;20411;-67
2023/05/11 03:19:27;;;;;;;48.43;30.93;;;12.70;99.90;;;;;;2607382;54;20403;-67
2023/05/11 03:22:31;;;;;;;54.57;32.93;;;12.70;99.90;;;;;;2608882;54;20954;-67
2023/05/11 03:24:57;;;;;;;52.60;33.87;;;12.70;99.90;;;;;;2606166;54;20418;-66
2023/05/11 03:30:45;;;;;;;51.47;32.57;;;12.60;99.90;;;;;;2606616;54;20964;-67
2023/05/11 03:36:34;;;;;;;51.53;33.33;;;12.50;99.90;;;;;;2606420;54;20363;-67
2023/05/11 03:42:24;;;;;;;51.47;31.33;;;12.50;99.90;;;;;;2610462;46;20379;-67
2023/05/11 03:48:15;;;;;;;51.17;33.77;;;12.50;99.90;;;;;;2606820;54;20370;-67
2023/05/11 03:54:04;;;;;;;48.50;33.07;;;12.40;99.90;;;;;;2607907;54;21175;-68
2023/05/11 03:59:52;;;;;;;53.37;32.10;;;12.30;99.90;;;;;;2608836;54;20371;-67
2023/05/11 04:05:40;;;;;;;45.67;30.80;;;12.30;99.90;;;;;;2607407;54;20250;-67
2023/05/11 04:11:29;;;;;;;58.27;34.00;;;12.30;99.90;;;;;;2607052;54;20354;-67
2023/05/11 04:21:28;;;;;;;58.10;33.83;;;12.50;99.90;;;;;;2606288;54;22127;-67
2023/05/11 04:27:16;;;;;;;51.43;34.13;;;12.60;99.90;;;;;;2606784;54;21221;-68
2023/05/11 04:33:04;;;;;;;51.03;34.63;;;12.60;99.90;;;;;;2607331;54;20247;-67
2023/05/11 04:38:52;;;;;;;59.13;36.70;;;12.70;99.90;;;;;;2607141;54;20399;-67
2023/05/11 04:44:40;;;;;;;51.93;33.10;;;12.90;99.90;;;;;;2606325;54;20130;-67
2023/05/11 04:50:27;;;;;;;53.10;31.60;;;12.70;99.90;;;;;;2606698;54;20166;-68
2023/05/11 04:56:15;;;;;;;46.47;32.30;;;12.80;99.90;;;;;;2606641;54;20692;-66
2023/05/11 05:02:03;;;;;;;44.80;31.47;;;12.90;99.90;;;;;;2606922;54;20154;-67
2023/05/11 05:07:51;;;;;;;47.13;32.50;;;13.10;99.90;;;;;;2607747;54;21238;-68
2023/05/11 05:13:38;;;;;;;48.90;30.83;;;13.20;99.90;;;;;;2607521;54;20639;-68
2023/05/11 05:17:01;;;;;;;47.80;31.10;;;13.30;99.90;;;;;;2606688;54;20415;-70
2023/05/11 05:19:26;;;;;;;50.57;31.97;;;13.40;99.90;;;;;;2608198;54;20151;-67
2023/05/11 05:25:14;;;;;;;46.90;29.37;;;13.20;99.90;;;;;;2606897;54;20150;-68
2023/05/11 05:31:02;;;;;;;51.70;32.33;;;13.20;99.90;;;;;;2609411;54;20178;-68
2023/05/11 05:36:50;;;;;;;56.97;33.83;;;13.40;99.90;;;;;;2608541;39;20516;-67
2023/05/11 05:42:37;;;;;;;58.33;35.40;;;13.40;99.90;;;;;;2608311;54;20138;-67
2023/05/11 05:48:25;;;;;;;51.53;35.20;;;13.70;99.90;;;;;;2610977;54;20135;-67
2023/05/11 05:54:13;;;;;;;53.57;33.47;;;13.50;99.90;;;;;;2611586;54;20138;-67
2023/05/11 06:00:01;;;;;;;50.13;30.47;;;13.40;99.90;;;;;;2610682;54;20134;-68
2023/05/11 06:05:48;;;;;;;50.23;30.50;;;13.60;99.90;;;;;;2609255;54;20130;-67
2023/05/11 06:11:37;;;;;;;49.03;29.00;;;13.60;99.90;;;;;;2609708;54;20279;-69
2023/05/11 06:21:30;;;;;;;42.80;26.83;;;14.00;99.90;;;;;;2609928;54;20405;-66
2023/05/11 06:27:18;;;;;;;39.00;25.27;;;14.40;99.90;;;;;;2604170;54;21308;-67
2023/05/11 06:33:06;;;;;;;35.50;23.27;;;14.80;99.90;;;;;;2610392;31;20589;-68
2023/05/11 06:38:54;;;;;;;40.77;26.03;;;14.80;99.90;;;;;;2611853;54;20555;-67
2023/05/11 06:44:42;;;;;;;50.00;32.13;;;14.90;99.90;;;;;;2611649;54;20480;-68
2023/05/11 06:50:29;;;;;;;39.77;27.43;;;15.60;99.90;;;;;;2612482;54;20174;-67
2023/05/11 06:56:17;;;;;;;43.43;28.70;;;15.40;99.90;;;;;;2609040;54;20127;-67
2023/05/11 07:02:05;;;;;;;40.30;28.20;;;16.40;99.90;;;;;;2611178;54;20170;-67
2023/05/11 07:07:53;;;;;;;41.00;28.90;;;16.50;99.90;;;;;;2611689;54;20156;-68
2023/05/11 07:13:41;;;;;;;38.80;30.17;;;17.00;99.90;;;;;;2612878;54;20134;-67
2023/05/11 07:17:00;;;;;;;37.77;31.77;;;17.10;99.90;;;;;;2610507;54;20507;-67
2023/05/11 07:19:26;;;;;;;37.90;31.67;;;17.60;99.90;;;;;;2609658;54;20443;-68
2023/05/11 07:25:14;;;;;;;35.50;29.73;;;17.40;99.90;;;;;;2610884;54;20628;-68
2023/05/11 07:31:01;;;;;;;31.03;25.70;;;17.30;99.90;;;;;;2613794;54;20287;-67
2023/05/11 07:36:49;;;;;;;30.60;24.57;;;17.80;99.90;;;;;;2612002;54;20239;-67
2023/05/11 07:42:37;;;;;;;34.17;26.50;;;18.00;99.90;;;;;;2614017;54;20131;-67
2023/05/11 07:48:24;;;;;;;28.50;24.07;;;18.10;99.90;;;;;;2614238;54;20146;-67
2023/05/11 07:54:12;;;;;;;32.70;27.80;;;17.50;99.90;;;;;;2610916;54;20150;-67
2023/05/11 08:00:00;;;;;;;37.63;26.77;;;18.50;99.90;;;;;;2612756;54;20121;-67
2023/05/11 08:05:48;;;;;;;28.43;25.03;;;18.50;99.90;;;;;;2610895;54;20123;-68
2023/05/11 08:11:35;;;;;;;31.67;26.53;;;18.40;99.90;;;;;;2611105;54;20162;-67
2023/05/11 08:21:29;;;;;;;31.40;27.87;;;18.80;99.90;;;;;;2611548;54;21051;-67
2023/05/11 08:27:17;;;;;;;29.27;26.17;;;20.00;99.90;;;;;;2611277;54;20502;-67
2023/05/11 08:33:06;;;;;;;28.50;24.70;;;18.80;99.90;;;;;;2612612;54;20395;-66
2023/05/11 08:38:54;;;;;;;28.43;25.40;;;18.70;99.90;;;;;;2611426;54;20411;-67
2023/05/11 08:44:43;;;;;;;26.17;23.17;;;18.70;99.90;;;;;;2611480;54;20387;-67
2023/05/11 08:50:31;;;;;;;28.17;25.07;;;18.40;99.90;;;;;;2613393;54;20419;-68
2023/05/11 08:56:21;;;;;;;28.77;25.80;;;17.80;99.90;;;;;;2612669;54;20663;-66
2023/05/11 09:02:13;;;;;;;28.93;25.17;;;17.50;99.90;;;;;;2613493;54;20391;-67
2023/05/11 09:08:04;;;;;;;28.97;24.97;;;18.00;99.90;;;;;;2612316;54;20484;-67
2023/05/11 09:13:52;;;;;;;27.80;24.97;;;17.40;99.90;;;;;;2613851;54;20399;-67
2023/05/11 09:16:58;;;;;;;27.90;24.10;;;17.90;99.90;;;;;;2612812;54;20388;-67
2023/05/11 09:19:24;;;;;;;28.57;25.53;;;17.80;99.90;;;;;;2613546;54;20446;-67
2023/05/11 09:25:13;;;;;;;26.00;23.50;;;18.20;99.90;;;;;;2613387;54;20363;-67
2023/05/11 09:31:01;;;;;;;26.47;23.80;;;17.80;99.90;;;;;;2613425;54;20427;-66
2023/05/11 09:36:51;;;;;;;27.63;24.93;;;17.80;99.90;;;;;;2615031;54;20143;-67
2023/05/11 09:42:38;;;;;;;33.30;28.20;;;17.20;99.90;;;;;;2614607;46;20422;-68
2023/05/11 09:48:31;;;;;;;30.90;27.70;;;16.80;99.90;;;;;;2613728;54;20146;-67
2023/05/11 09:54:20;;;;;;;26.87;24.00;;;16.50;99.90;;;;;;2613980;54;20362;-68
2023/05/11 10:00:13;;;;;;;27.77;24.70;;;16.60;99.90;;;;;;2614635;54;20495;-68
2023/05/11 10:06:01;;;;;;;30.57;27.03;;;16.40;99.90;;;;;;2614457;54;20367;-67
2023/05/11 10:11:51;;;;;;;24.27;21.67;;;16.70;99.90;;;;;;2611912;54;20364;-68
2023/05/11 10:21:28;;;;;;;24.50;21.93;;;16.40;99.90;;;;;;2613108;54;20925;-67
2023/05/11 10:24:28;;;;;;;19.33;17.50;;;16.60;99.90;;;;;;2610976;54;20396;-66
2023/05/11 10:26:56;;;;;;;19.17;17.40;;;16.30;99.90;;;;;;2613356;54;20428;-67
2023/05/11 10:32:47;;;;;;;19.53;16.93;;;16.50;99.90;;;;;;2613803;54;20367;-67
2023/05/11 10:38:35;;;;;;;17.33;15.70;;;16.40;99.90;;;;;;2611403;54;20402;-67
2023/05/11 11:04:01;;;;;;;14.20;12.70;;;15.90;99.90;;;;;;2613081;54;20387;-68
2023/05/11 11:09:55;;;;;;;16.33;14.60;;;15.60;99.90;;;;;;2613797;54;20496;-68
2023/05/11 11:15:55;;;;;;;21.43;17.03;;;15.60;99.90;;;;;;2613741;54;20387;-68
2023/05/11 11:21:44;;;;;;;30.37;21.00;;;15.60;99.90;;;;;;2612978;54;20518;-67
2023/05/11 11:24:46;;;;;;;30.33;21.73;;;15.40;99.90;;;;;;2614137;54;20435;-68
2023/05/11 11:30:34;;;;;;;28.83;22.30;;;15.70;99.90;;;;;;2614161;54;20480;-68
2023/05/11 11:36:57;;;;;;;29.90;24.07;;;15.90;99.90;;;;;;2613205;46;20423;-68
2023/05/11 11:42:46;;;;;;;39.97;25.97;;;15.90;99.90;;;;;;2613464;54;20430;-66
2023/05/11 11:48:37;;;;;;;39.33;27.33;;;15.40;99.90;;;;;;2614046;54;20371;-68
2023/05/11 12:01:02;;;;;;;31.47;26.10;;;17.00;99.90;;;;;;2614403;54;21009;-68
2023/05/11 12:06:56;;;;;;;36.80;27.60;;;16.80;99.90;;;;;;2612142;54;20347;-68
2023/05/11 12:12:46;;;;;;;30.13;24.73;;;17.30;99.90;;;;;;2613476;54;20383;-67
2023/05/11 12:18:34;;;;;;;30.33;23.97;;;17.10;99.90;;;;;;2613703;46;20937;-67
2023/05/11 12:24:22;;;;;;;27.77;24.87;;;18.00;99.90;;;;;;2609966;54;20446;-67
2023/05/11 12:27:43;;;;;;;28.50;25.47;;;18.50;99.90;;;;;;2613063;54;20511;-68
2023/05/11 12:33:31;;;;;;;29.70;25.10;;;18.10;99.90;;;;;;2613297;54;20378;-67
2023/05/11 12:39:23;;;;;;;26.00;23.57;;;18.40;99.90;;;;;;2612511;54;20890;-67
2023/05/11 12:45:11;;;;;;;22.70;20.50;;;18.00;99.90;;;;;;2609097;54;20414;-67
2023/05/11 12:50:59;;;;;;;24.30;21.80;;;18.40;99.90;;;;;;2609976;54;20458;-68
2023/05/11 12:56:49;;;;;;;23.23;20.80;;;18.20;99.90;;;;;;2612024;54;20123;-67
2023/05/11 13:02:48;;;;;;;20.77;18.77;;;18.50;99.90;;;;;;2612109;54;20407;-66
2023/05/11 13:08:38;;;;;;;21.87;19.77;;;18.50;99.90;;;;;;2613069;47;20407;-67
2023/05/11 13:14:30;;;;;;;21.43;19.33;;;18.80;99.90;;;;;;2613257;54;20415;-67
2023/05/11 13:20:25;;;;;;;21.63;19.53;;;19.10;99.90;;;;;;2613123;54;20375;-67
2023/05/11 13:23:20;;;;;;;19.47;17.67;;;18.60;99.90;;;;;;2613605;54;20392;-68
2023/05/11 13:25:48;;;;;;;19.57;17.67;;;18.40;99.90;;;;;;2612882;47;20423;-68
2023/05/11 13:31:50;;;;;;;20.73;18.93;;;18.30;99.90;;;;;;2614247;54;20402;-67
2023/05/11 13:37:38;;;;;;;21.20;19.30;;;18.60;99.90;;;;;;2614269;54;20390;-68
2023/05/11 13:43:26;;;;;;;18.60;16.87;;;18.50;99.90;;;;;;2614723;39;20259;-68
2023/05/11 13:49:13;;;;;;;17.60;16.20;;;18.70;99.90;;;;;;2613242;54;20222;-68
2023/05/11 13:52:00;;;;;;;17.40;15.77;;;18.60;99.90;;;;;;2612818;54;20400;-68
2023/05/11 13:54:25;;;;;;;16.87;15.40;;;18.40;99.90;;;;;;2613088;54;20185;-68
2023/05/11 14:00:13;;;;;;;19.27;12.47;;;18.10;99.90;;;;;;2613678;54;20138;-68
2023/05/11 14:06:02;;;;;;;13.43;12.43;;;17.20;99.90;;;;;;2613796;54;20394;-68
2023/05/11 14:11:50;;;;;;;13.60;7.77;;;17.10;99.90;;;;;;2609994;54;20367;-67
2023/05/11 14:17:37;;;;;;;10.33;9.00;;;15.70;99.90;;;;;;2613970;39;20558;-67
2023/05/11 14:27:48;;;;;;;9.17;7.50;;;15.00;99.90;;;;;;2613330;54;20379;-68
2023/05/11 14:33:35;;;;;;;10.97;7.97;;;14.90;99.90;;;;;;2613242;54;20371;-69
2023/05/11 14:39:23;;;;;;;12.87;10.37;;;15.00;99.90;;;;;;2614166;54;20114;-68
2023/05/11 14:45:11;;;;;;;16.63;10.27;;;14.80;99.90;;;;;;2614177;54;20422;-68
2023/05/11 14:50:59;;;;;;;10.30;9.13;;;15.00;99.90;;;;;;2613896;54;20154;-67
2023/05/11 14:56:52;;;;;;;11.40;8.80;;;14.90;99.90;;;;;;2612378;39;20802;-69
2023/05/11 15:02:40;;;;;;;11.17;8.63;;;15.00;99.90;;;;;;2613719;54;20466;-75
2023/05/11 15:08:28;;;;;;;9.07;7.80;;;15.10;99.90;;;;;;2614183;39;20773;-76
2023/05/11 15:11:32;;;;;;;13.37;7.80;;;15.30;99.90;;;;;;2614287;47;20412;-76
2023/05/11 15:13:57;;;;;;;9.67;8.13;;;15.20;99.90;;;;;;2614576;54;20222;-76
2023/05/11 15:19:45;;;;;;;9.80;8.03;;;15.20;99.90;;;;;;2610298;39;20815;-76
2023/05/11 15:22:38;;;;;;;10.37;7.73;;;15.30;99.90;;;;;;2609620;54;20468;-76
2023/05/11 15:29:02;;;;;;;7.57;6.77;;;15.60;99.90;;;;;;2612050;54;20583;-75
2023/05/11 15:34:52;;;;;;;5.90;5.30;;;15.60;99.90;;;;;;2611582;54;20491;-74
2023/05/11 15:40:40;;;;;;;6.17;5.57;;;15.20;99.90;;;;;;2613016;54;20379;-75
2023/05/11 15:46:27;;;;;;;8.57;5.43;;;15.40;99.90;;;;;;2612331;54;20126;-76
2023/05/11 15:52:16;;;;;;;7.87;6.07;;;15.50;99.90;;;;;;2612559;54;20127;-75
2023/05/11 15:58:07;;;;;;;6.53;5.93;;;15.50;99.90;;;;;;2613368;54;20390;-76
2023/05/11 16:03:55;;;;;;;6.10;5.60;;;15.60;99.90;;;;;;2613419;54;20387;-75
2023/05/11 16:09:43;;;;;;;7.67;6.90;;;15.50;99.90;;;;;;2612222;54;20363;-75
2023/05/11 16:15:31;;;;;;;6.90;6.23;;;15.60;99.90;;;;;;2614040;54;20119;-75
2023/05/11 16:21:19;;;;;;;10.00;7.30;;;15.60;99.90;;;;;;2614022;54;20407;-76
2023/05/11 16:24:32;;;;;;;8.27;7.47;;;15.60;99.90;;;;;;2612535;54;20432;-75
2023/05/11 16:26:58;;;;;;;7.97;7.27;;;15.70;99.90;;;;;;2613452;54;20151;-75
2023/05/11 16:32:45;;;;;;;7.00;6.40;;;15.50;99.90;;;;;;2613636;54;20378;-75
2023/05/11 16:38:33;;;;;;;7.70;6.43;;;15.70;99.90;;;;;;2611114;54;20705;-75
2023/05/11 16:44:21;;;;;;;7.10;6.50;;;15.50;99.90;;;;;;2613535;54;20126;-75
2023/05/11 16:50:12;;;;;;;6.83;6.07;;;15.40;99.90;;;;;;2609983;54;20142;-75
2023/05/11 16:56:00;;;;;;;7.10;6.40;;;15.20;99.90;;;;;;2612281;54;20356;-74
2023/05/11 17:01:48;;;;;;;7.90;6.77;;;15.10;99.90;;;;;;2610490;54;20138;-75
2023/05/11 17:07:36;;;;;;;7.10;6.30;;;15.10;99.90;;;;;;2613087;54;20399;-75
2023/05/11 17:13:23;;;;;;;8.40;6.40;;;14.90;99.90;;;;;;2613122;54;20783;-75
2023/05/11 17:19:11;;;;;;;7.83;7.03;;;14.80;99.90;;;;;;2607926;54;20165;-74
2023/05/11 17:28:59;;;;;;;8.20;7.50;;;14.90;99.90;;;;;;2612311;54;20455;-75
2023/05/11 17:34:46;;;;;;;7.37;6.57;;;14.80;99.90;;;;;;2607352;54;20391;-75
2023/05/11 17:40:34;;;;;;;10.50;8.60;;;14.70;99.90;;;;;;2612212;54;20890;-75
2023/05/11 17:46:22;;;;;;;10.30;8.50;;;14.50;99.90;;;;;;2610947;54;20134;-75
2023/05/11 17:52:10;;;;;;;8.67;7.30;;;14.60;99.90;;;;;;2611925;54;20126;-75
2023/05/11 17:57:57;;;;;;;7.10;6.33;;;14.50;99.90;;;;;;2612217;54;20170;-74
2023/05/11 18:03:45;;;;;;;8.00;7.03;;;14.40;99.90;;;;;;2611013;54;20472;-74
2023/05/11 18:09:33;;;;;;;11.73;8.57;;;14.30;99.90;;;;;;2609050;54;20239;-75
2023/05/11 18:15:21;;;;;;;9.23;7.93;;;14.30;99.90;;;;;;2613408;54;20150;-75
2023/05/11 18:21:12;;;;;;;8.40;6.40;;;14.30;99.90;;;;;;2611440;39;20531;-75
2023/05/11 18:24:31;;;;;;;7.80;7.10;;;14.30;99.90;;;;;;2613174;54;20952;-76
2023/05/11 18:26:57;;;;;;;7.60;6.77;;;14.30;99.90;;;;;;2613122;54;20411;-75
2023/05/11 18:32:45;;;;;;;7.30;6.40;;;14.20;99.90;;;;;;2613670;54;20138;-75
2023/05/11 18:38:33;;;;;;;9.77;6.10;;;14.00;99.90;;;;;;2614278;54;20133;-76
2023/05/11 18:44:21;;;;;;;5.03;4.53;;;13.80;99.90;;;;;;2613971;54;20134;-75
2023/05/11 18:50:10;;;;;;;7.43;5.77;;;13.70;99.90;;;;;;2614614;54;20355;-75
2023/05/11 18:55:58;;;;;;;7.47;6.40;;;13.60;99.90;;;;;;2613050;54;20375;-75
2023/05/11 19:01:46;;;;;;;9.40;5.50;;;13.60;99.90;;;;;;2611955;54;20126;-74
2023/05/11 19:07:33;;;;;;;6.43;5.80;;;13.40;99.90;;;;;;2613302;54;20447;-74
2023/05/11 19:13:21;;;;;;;5.83;5.00;;;13.40;99.90;;;;;;2613165;54;20215;-75
2023/05/11 19:19:09;;;;;;;6.30;5.63;;;13.40;99.90;;;;;;2613908;54;20170;-75
2023/05/11 19:29:03;;;;;;;7.93;6.20;;;13.40;99.90;;;;;;2614027;54;20442;-76
2023/05/11 19:34:51;;;;;;;8.23;6.47;;;13.30;99.90;;;;;;2614225;54;20391;-75
2023/05/11 19:40:40;;;;;;;10.20;7.53;;;13.40;99.90;;;;;;2612157;54;20126;-75
2023/05/11 19:46:28;;;;;;;9.30;8.43;;;13.40;99.90;;;;;;2614226;54;20467;-75
2023/05/11 19:52:16;;;;;;;11.07;7.93;;;13.40;99.90;;;;;;2613638;54;20732;-75
2023/05/11 19:58:05;;;;;;;9.40;8.47;;;13.40;99.90;;;;;;2614724;54;20130;-75
2023/05/11 20:03:53;;;;;;;16.20;10.30;;;13.40;99.90;;;;;;2613665;54;20882;-75
2023/05/11 20:09:41;;;;;;;15.47;11.80;;;13.40;99.90;;;;;;2613952;54;20169;-75
2023/05/11 20:15:30;;;;;;;18.00;14.03;;;13.40;99.90;;;;;;2614949;54;20138;-75
2023/05/11 20:21:18;;;;;;;13.83;11.90;;;13.40;99.90;;;;;;2613678;54;20359;-76
2023/05/11 20:24:30;;;;;;;18.17;14.10;;;13.40;99.90;;;;;;2612132;54;20407;-75
2023/05/11 20:26:56;;;;;;;13.20;11.10;;;13.40;99.90;;;;;;2613308;54;20238;-75
2023/05/11 20:32:44;;;;;;;12.30;10.33;;;13.50;99.90;;;;;;2613292;54;20138;-75
2023/05/11 20:38:32;;;;;;;13.40;10.70;;;13.50;99.90;;;;;;2614399;31;20611;-76
2023/05/11 20:44:19;;;;;;;16.77;12.17;;;13.50;99.90;;;;;;2613871;54;20599;-76
2023/05/11 20:50:08;;;;;;;18.23;14.60;;;13.50;99.90;;;;;;2613389;54;20146;-76
2023/05/11 20:55:56;;;;;;;19.37;14.23;;;13.50;99.90;;;;;;2611976;54;20427;-76
2023/05/11 21:01:44;;;;;;;14.27;12.87;;;13.60;99.90;;;;;;2610938;54;20138;-76
2023/05/11 21:07:33;;;;;;;17.80;15.77;;;13.60;99.90;;;;;;2612822;54;20126;-76
2023/05/11 21:13:21;;;;;;;20.60;16.33;;;13.60;99.90;;;;;;2610368;54;20980;-75
2023/05/11 21:19:08;;;;;;;23.17;17.63;;;13.60;99.90;;;;;;2612396;54;20152;-75
2023/05/11 21:29:02;;;;;;;24.17;17.93;;;13.60;99.90;;;;;;2611459;54;21094;-76
2023/05/11 21:34:49;;;;;;;31.13;19.97;;;13.60;99.90;;;;;;2612461;54;20354;-75
2023/05/11 21:40:37;;;;;;;25.83;18.40;;;13.60;99.90;;;;;;2612489;54;20153;-76
2023/05/11 21:46:24;;;;;;;23.77;18.93;;;13.50;99.90;;;;;;2613688;54;20121;-75
2023/05/11 21:52:12;;;;;;;24.90;18.67;;;13.60;99.90;;;;;;2613505;54;20142;-75
2023/05/11 21:58:00;;;;;;;25.23;17.93;;;13.50;99.90;;;;;;2614740;54;20118;-75
2023/05/11 22:03:49;;;;;;;27.97;19.40;;;13.50;99.90;;;;;;2611962;54;20403;-76
2023/05/11 22:09:36;;;;;;;29.77;19.57;;;13.50;99.90;;;;;;2612038;54;20439;-75
2023/05/11 22:15:26;;;;;;;30.40;20.27;;;13.50;99.90;;;;;;2614362;39;20515;-75
2023/05/11 22:21:13;;;;;;;27.80;21.20;;;13.50;99.90;;;;;;2612269;54;20359;-75
2023/05/11 22:27:14;;;;;;;33.70;22.10;;;13.50;99.90;;;;;;2612462;47;20139;-77
2023/05/11 22:33:02;;;;;;;31.57;22.40;;;13.50;99.90;;;;;;2610179;54;20392;-75
2023/05/11 22:38:50;;;;;;;33.00;22.20;;;13.40;99.90;;;;;;2610201;54;20122;-76
2023/05/11 22:44:37;;;;;;;31.93;21.60;;;13.40;99.90;;;;;;2610402;54;20122;-76
2023/05/11 22:50:25;;;;;;;28.10;19.13;;;13.40;99.90;;;;;;2611641;54;20728;-76
2023/05/11 22:56:12;;;;;;;30.20;18.80;;;13.40;99.90;;;;;;2611618;54;20379;-76
2023/05/11 23:02:02;;;;;;;32.43;19.23;;;13.40;99.90;;;;;;2611135;54;20258;-75
2023/05/11 23:07:49;;;;;;;21.87;16.97;;;13.30;99.90;;;;;;2609707;54;20350;-76
2023/05/11 23:13:37;;;;;;;24.40;15.90;;;13.30;99.90;;;;;;2613135;54;20119;-76
2023/05/11 23:19:25;;;;;;;25.47;16.47;;;13.30;99.90;;;;;;2613353;39;20488;-76
2023/05/11 23:29:03;;;;;;;21.27;14.40;;;13.20;99.90;;;;;;2612104;39;20869;-78
2023/05/11 23:34:51;;;;;;;17.30;11.30;;;13.30;99.90;;;;;;2612180;54;20374;-76
2023/05/11 23:40:39;;;;;;;18.60;11.40;;;13.20;99.90;;;;;;2612255;39;20524;-76
2023/05/11 23:46:27;;;;;;;20.10;13.00;;;13.20;99.90;;;;;;2612485;46;20177;-76
2023/05/11 23:52:14;;;;;;;17.00;12.83;;;13.20;99.90;;;;;;2612840;54;20369;-76
2023/05/11 23:58:02;;;;;;;21.77;14.87;;;13.30;99.90;;;;;;2612700;54;20146;-76
